Time;durP1;ratioP1;P1;durP2;ratioP2;P2;SDS_P1;SDS_P2;PMS_P1;PMS_P2;Temp;Humidity;BMP_temperature;BMP_pressure;BME280_temperature;BME280_humidity;BME280_pressure;Samples;Min_cycle;Max_cycle;Signal;HPM_P1;HPM_P2
2023/01/08 00:06:26;;;;;;;7.35;4.05;;;;;;;9.03;60.54;99315.25;1087648;54;20038;-80
2023/01/08 00:10:29;;;;;;;6.43;4.35;;;;;;;9.02;60.77;99299.44;1087823;31;20702;-80
2023/01/08 00:18:00;;;;;;;7.25;4.93;;;;;;;9.07;60.25;99283.78;1085608;54;20089;-79
2023/01/08 00:19:02;;;;;;;7.55;4.90;;;;;;;9.13;60.44;99288.53;1086739;54;20046;-81
2023/01/08 00:20:08;;;;;;;6.57;4.32;;;;;;;9.15;60.31;99289.22;1086946;54;20037;-80
2023/01/08 00:21:13;;;;;;;7.32;4.30;;;;;;;9.21;60.27;99296.59;1089644;31;20591;-80
2023/01/08 00:22:14;;;;;;;6.13;4.35;;;;;;;9.24;60.23;99286.63;1087182;54;20038;-79
2023/01/08 00:23:20;;;;;;;7.88;4.60;;;;;;;9.01;60.72;99287.09;1087526;54;20038;-79
2023/01/08 00:24:24;;;;;;;7.18;4.78;;;;;;;9.05;61.03;99285.78;1088659;46;20030;-80
2023/01/08 00:25:26;;;;;;;8.02;4.90;;;;;;;9.12;60.76;99284.19;1088411;46;20030;-80
2023/01/08 00:26:30;;;;;;;7.47;4.55;;;;;;;9.12;60.97;99280.66;1088345;46;20036;-80
2023/01/08 00:27:31;;;;;;;7.13;4.43;;;;;;;9.20;60.53;99278.91;1089254;46;20046;-81
2023/01/08 00:28:36;;;;;;;6.15;4.43;;;;;;;9.22;60.56;99292.09;1088100;54;20090;-79
2023/01/08 00:29:38;;;;;;;10.07;5.00;;;;;;;9.19;60.80;99281.75;1091014;46;20030;-81
2023/01/08 00:30:43;;;;;;;6.60;4.25;;;;;;;9.29;60.22;99289.63;1087961;54;20127;-79
2023/01/08 00:31:44;;;;;;;7.30;4.72;;;;;;;9.13;60.63;99283.19;1087949;54;20053;-79
2023/01/08 00:32:48;;;;;;;6.57;4.38;;;;;;;9.20;60.55;99286.09;1087966;54;20041;-78
2023/01/08 00:33:55;;;;;;;7.40;5.03;;;;;;;9.19;60.78;99281.75;1088046;54;20031;-80
2023/01/08 00:34:57;;;;;;;7.93;4.78;;;;;;;9.22;60.79;99284.09;1088016;54;20057;-80
2023/01/08 00:38:43;;;;;;;6.20;4.40;;;;;;;9.23;60.45;99268.94;1086857;54;20038;-80
2023/01/08 00:42:08;;;;;;;8.93;5.28;;;;;;;9.15;60.70;99272.38;1087452;46;20747;-78
2023/01/08 00:43:16;;;;;;;7.35;4.32;;;;;;;9.16;60.56;99266.88;1088603;46;20036;-79
2023/01/08 00:44:23;;;;;;;6.82;4.57;;;;;;;9.24;60.48;99265.28;1087421;54;20957;-77
2023/01/08 00:45:25;;;;;;;5.43;3.78;;;;;;;9.25;60.52;99259.78;1087586;46;20081;-78
2023/01/08 00:46:32;;;;;;;6.90;4.13;;;;;;;9.27;60.64;99262.28;1087440;54;20054;-78
2023/01/08 00:47:46;;;;;;;6.72;4.03;;;;;;;9.29;60.72;99260.31;1087348;54;20058;-78
2023/01/08 00:48:55;;;;;;;6.60;4.50;;;;;;;9.28;60.51;99247.97;1087034;54;20132;-78
2023/01/08 00:50:11;;;;;;;7.68;4.47;;;;;;;9.26;60.70;99244.63;1086795;54;20057;-78
2023/01/08 00:51:18;;;;;;;7.03;4.60;;;;;;;9.24;60.67;99246.59;1087062;54;20031;-80
2023/01/08 00:52:22;;;;;;;7.22;4.85;;;;;;;9.25;60.69;99253.63;1087105;54;20114;-78
2023/01/08 00:53:23;;;;;;;6.13;4.30;;;;;;;9.29;60.58;99249.63;1088739;39;20554;-78
2023/01/08 00:54:28;;;;;;;6.78;4.68;;;;;;;9.19;60.57;99245.22;1087224;54;20097;-78
2023/01/08 00:55:32;;;;;;;5.95;4.03;;;;;;;9.21;60.63;99232.59;1087573;54;20049;-78
2023/01/08 00:58:05;;;;;;;6.13;4.28;;;;;;;9.17;60.40;99220.53;1087210;46;20057;-78
2023/01/08 00:59:34;;;;;;;7.68;4.95;;;;;;;9.12;60.29;99233.53;1086503;54;20057;-78
2023/01/08 01:01:19;;;;;;;6.95;4.40;;;;;;;9.04;60.85;99236.13;1086359;54;20038;-78
2023/01/08 01:02:59;;;;;;;6.45;4.13;;;;;;;9.02;60.51;99227.44;1085915;54;20042;-77
2023/01/08 01:04:50;;;;;;;7.40;4.55;;;;;;;9.00;60.43;99226.75;1086331;54;20034;-78
2023/01/08 01:06:37;;;;;;;6.80;4.15;;;;;;;8.94;60.06;99227.38;1088792;46;20046;-80
2023/01/08 01:07:46;;;;;;;7.82;5.22;;;;;;;8.95;60.58;99231.72;1086818;46;20042;-79
2023/01/08 01:08:51;;;;;;;6.63;4.40;;;;;;;9.03;60.35;99226.44;1086703;54;20061;-79
2023/01/08 01:09:52;;;;;;;6.63;4.60;;;;;;;9.02;60.21;99233.59;1086479;54;20050;-79
2023/01/08 01:10:56;;;;;;;6.88;4.20;;;;;;;9.03;60.24;99226.44;1086557;54;20038;-78
2023/01/08 01:11:58;;;;;;;6.68;4.22;;;;;;;9.03;60.16;99229.94;1086660;54;20054;-78
2023/01/08 01:13:02;;;;;;;5.78;4.20;;;;;;;9.02;59.97;99222.09;1087829;46;20105;-78
2023/01/08 01:14:04;;;;;;;6.80;4.32;;;;;;;9.11;59.90;99226.50;1086660;54;20042;-79
2023/01/08 01:15:10;;;;;;;6.65;4.40;;;;;;;9.08;59.63;99220.66;1087138;54;20018;-81
2023/01/08 01:16:11;;;;;;;7.38;4.50;;;;;;;8.96;59.79;99218.22;1087183;54;20054;-79
2023/01/08 01:17:15;;;;;;;7.72;4.95;;;;;;;8.95;59.99;99218.41;1087534;46;20035;-80
2023/01/08 01:18:17;;;;;;;6.68;4.50;;;;;;;9.00;59.93;99222.28;1087335;54;20114;-80
2023/01/08 01:19:21;;;;;;;7.43;4.65;;;;;;;9.00;59.67;99221.41;1087382;54;20046;-78
2023/01/08 01:20:22;;;;;;;6.53;4.90;;;;;;;9.02;59.56;99222.94;1087382;54;20034;-79
2023/01/08 01:21:33;;;;;;;6.28;4.55;;;;;;;9.07;59.46;99218.97;1087365;54;20046;-80
2023/01/08 01:22:35;;;;;;;7.00;4.65;;;;;;;9.08;59.71;99216.16;1087414;54;20011;-79
2023/01/08 01:23:39;;;;;;;8.02;4.68;;;;;;;9.08;59.46;99213.47;1087306;54;20042;-78
2023/01/08 01:24:41;;;;;;;7.85;4.43;;;;;;;9.03;59.58;99215.78;1087102;54;20030;-79
2023/01/08 01:25:45;;;;;;;7.68;4.20;;;;;;;9.04;59.66;99220.13;1087128;54;20034;-79
2023/01/08 01:28:00;;;;;;;6.30;4.40;;;;;;;8.87;59.74;99224.50;1086286;54;20034;-79
2023/01/08 01:29:02;;;;;;;6.35;4.43;;;;;;;8.80;60.13;99229.59;1087371;54;20038;-81
2023/01/08 01:30:07;;;;;;;6.70;4.35;;;;;;;8.84;59.88;99236.31;1087239;54;20038;-78
2023/01/08 01:31:11;;;;;;;6.05;3.92;;;;;;;8.99;59.69;99239.25;1087277;54;20049;-79
2023/01/08 01:32:15;;;;;;;6.50;4.22;;;;;;;8.82;60.31;99237.44;1087966;46;20181;-78
2023/01/08 01:33:16;;;;;;;7.10;4.72;;;;;;;8.90;59.81;99235.69;1087421;54;20038;-78
2023/01/08 01:34:21;;;;;;;7.70;4.40;;;;;;;8.97;59.96;99241.22;1086576;39;20549;-78
2023/01/08 01:35:22;;;;;;;7.25;4.65;;;;;;;8.80;60.05;99232.25;1088429;39;20476;-77
2023/01/08 01:36:29;;;;;;;6.72;4.10;;;;;;;8.83;60.18;99231.97;1086129;54;20045;-77
2023/01/08 01:37:32;;;;;;;6.97;4.32;;;;;;;8.85;60.01;99227.31;1086333;54;20077;-77
2023/01/08 01:38:36;;;;;;;7.38;4.43;;;;;;;8.89;60.18;99227.84;1086163;54;20045;-77
2023/01/08 01:39:38;;;;;;;6.78;4.57;;;;;;;8.90;59.74;99230.34;1085939;54;20618;-77
2023/01/08 01:40:43;;;;;;;6.40;3.88;;;;;;;8.90;59.78;99224.19;1086251;54;20050;-78
2023/01/08 01:41:46;;;;;;;7.07;4.20;;;;;;;8.92;60.09;99224.88;1087135;46;20042;-78
2023/01/08 01:42:50;;;;;;;7.30;4.55;;;;;;;8.85;60.08;99235.31;1086714;39;20708;-77
2023/01/08 01:43:53;;;;;;;6.05;3.88;;;;;;;8.93;60.11;99234.53;1086845;54;20336;-78
2023/01/08 01:44:57;;;;;;;5.40;3.53;;;;;;;8.92;59.88;99229.34;1086347;54;20057;-78
2023/01/08 01:45:58;;;;;;;5.80;3.90;;;;;;;9.00;59.81;99234.75;1085916;54;20043;-78
2023/01/08 01:47:06;;;;;;;5.97;4.25;;;;;;;9.05;59.49;99232.47;1088862;31;20590;-78
2023/01/08 01:48:11;;;;;;;6.95;4.60;;;;;;;8.94;59.63;99227.38;1086252;54;20053;-78
2023/01/08 01:49:21;;;;;;;6.03;4.15;;;;;;;8.97;59.80;99235.06;1086028;54;20588;-78
2023/01/08 01:50:27;;;;;;;7.28;4.47;;;;;;;8.86;60.41;99242.31;1086111;54;20065;-78
2023/01/08 01:51:36;;;;;;;6.07;3.97;;;;;;;8.79;60.18;99238.56;1086702;39;20173;-78
2023/01/08 01:52:40;;;;;;;6.22;3.80;;;;;;;8.92;60.13;99235.53;1086376;46;20053;-78
2023/01/08 01:53:45;;;;;;;6.40;4.15;;;;;;;8.96;59.96;99239.56;1086613;54;20038;-79
2023/01/08 01:54:50;;;;;;;5.95;3.67;;;;;;;8.95;59.65;99237.06;1087307;54;20046;-81
2023/01/08 01:57:47;;;;;;;8.18;4.10;;;;;;;8.86;59.92;99223.66;1086233;54;20034;-79
2023/01/08 02:01:20;;;;;;;6.05;4.10;;;;;;;8.88;60.05;99227.00;1085907;54;20041;-78
2023/01/08 02:02:21;;;;;;;6.15;4.03;;;;;;;8.76;60.00;99212.25;1085565;54;20054;-78
2023/01/08 02:03:27;;;;;;;7.95;5.05;;;;;;;8.76;60.50;99225.56;1085605;54;20077;-79
2023/01/08 02:04:29;;;;;;;6.25;3.80;;;;;;;8.84;60.28;99225.63;1086263;54;20042;-78
2023/01/08 02:05:39;;;;;;;6.22;4.13;;;;;;;8.85;60.23;99221.13;1086042;54;20090;-79
2023/01/08 02:06:48;;;;;;;5.85;4.05;;;;;;;8.84;59.85;99220.31;1086078;54;20031;-78
2023/01/08 02:08:02;;;;;;;6.50;4.30;;;;;;;8.87;59.74;99220.00;1087327;39;20510;-78
2023/01/08 02:09:08;;;;;;;7.20;4.28;;;;;;;8.83;60.08;99215.97;1086888;39;20491;-79
2023/01/08 02:10:18;;;;;;;5.90;4.10;;;;;;;8.83;59.94;99223.97;1086522;54;20030;-78
2023/01/08 02:11:25;;;;;;;6.70;4.00;;;;;;;8.86;60.05;99220.16;1086506;54;20038;-78
2023/01/08 02:12:36;;;;;;;6.22;3.97;;;;;;;8.86;59.92;99217.47;1087325;54;20049;-79
2023/01/08 02:13:40;;;;;;;6.65;4.13;;;;;;;8.84;60.01;99217.63;1087217;54;20639;-79
2023/01/08 02:15:02;;;;;;;6.28;3.83;;;;;;;8.78;60.17;99214.75;1087290;54;20030;-79
2023/01/08 02:22:16;;;;;;;6.22;4.00;;;;;;;8.77;59.68;99215.72;1087025;54;20034;-78
2023/01/08 02:23:28;;;;;;;6.15;4.30;;;;;;;8.67;59.94;99214.00;1087399;54;20030;-79
2023/01/08 02:24:44;;;;;;;6.13;3.95;;;;;;;8.81;59.77;99209.13;1087306;54;20069;-79
2023/01/08 02:26:17;;;;;;;6.30;4.15;;;;;;;8.82;59.29;99202.81;1087091;54;20065;-79
2023/01/08 02:27:20;;;;;;;6.20;3.95;;;;;;;8.84;59.64;99199.00;1086898;54;20038;-78
2023/01/08 02:28:24;;;;;;;6.43;3.90;;;;;;;8.85;59.75;99195.34;1087612;39;20623;-79
2023/01/08 02:29:28;;;;;;;5.63;3.75;;;;;;;8.74;60.03;99198.22;1087641;54;20038;-80
2023/01/08 02:30:33;;;;;;;7.72;4.35;;;;;;;8.80;59.83;99191.44;1087734;54;20341;-79
2023/01/08 02:31:37;;;;;;;6.00;4.15;;;;;;;8.77;59.99;99191.75;1087609;54;20077;-78
2023/01/08 02:32:44;;;;;;;6.80;4.00;;;;;;;8.86;59.51;99193.50;1087767;54;20034;-78
2023/01/08 02:33:45;;;;;;;7.78;4.45;;;;;;;8.84;59.53;99193.66;1088261;46;20556;-79
2023/01/08 02:34:50;;;;;;;5.90;4.05;;;;;;;8.84;59.52;99193.66;1087865;54;20031;-79
2023/01/08 02:39:46;;;;;;;6.25;3.90;;;;;;;8.92;59.31;99168.06;1086100;54;20045;-78
2023/01/08 02:40:58;;;;;;;6.18;3.70;;;;;;;8.89;59.63;99170.03;1086839;47;20038;-81
2023/01/08 02:42:10;;;;;;;5.72;3.50;;;;;;;8.82;59.45;99160.97;1088601;31;20513;-79
2023/01/08 02:43:19;;;;;;;7.53;4.43;;;;;;;8.80;59.47;99165.63;1087021;54;20042;-79
2023/01/08 02:44:34;;;;;;;6.18;3.78;;;;;;;8.83;59.34;99170.66;1086485;54;20038;-80
2023/01/08 02:45:45;;;;;;;6.15;4.20;;;;;;;8.77;59.62;99159.78;1086698;54;20019;-78
2023/01/08 02:59:21;;;;;;;;;;;;;;;;;;;;;
2023/01/08 03:01:03;;;;;;;;;;;;;;;8.72;60.13;99133.59;1087411;39;20645;-79
2023/01/08 03:03:04;;;;;;;;;;;;;;;;;;;;;
2023/01/08 03:07:06;;;;;;;6.60;3.90;;;;;;;8.68;60.38;99148.22;1087162;39;20497;-78
2023/01/08 03:10:53;;;;;;;7.22;4.03;;;;;;;8.74;60.52;99126.28;1086945;54;20138;-79
2023/01/08 03:12:47;;;;;;;6.82;3.60;;;;;;;8.71;60.50;99127.44;1086883;54;20034;-79
2023/01/08 03:14:36;;;;;;;;;;;;;;;;;;;;;
2023/01/08 03:21:40;;;;;;;6.30;3.88;;;;;;;8.89;60.67;99134.56;1085085;54;22377;-78
2023/01/08 03:22:46;;;;;;;5.82;3.67;;;;;;;8.83;60.64;99117.34;1087329;54;20042;-78
2023/01/08 03:23:52;;;;;;;6.10;3.88;;;;;;;8.87;60.43;99121.38;1087162;54;20042;-78
2023/01/08 03:24:58;;;;;;;6.72;3.90;;;;;;;8.92;60.60;99120.91;1087084;54;20051;-79
2023/01/08 03:36:42;;;;;;;6.72;3.63;;;;;;;8.99;60.46;99115.78;1085537;54;20034;-79
2023/01/08 03:37:48;;;;;;;6.80;3.60;;;;;;;9.04;60.46;99108.97;1086882;54;20046;-79
2023/01/08 03:38:58;;;;;;;5.90;3.63;;;;;;;9.08;60.21;99106.81;1087350;39;20445;-79
2023/01/08 03:40:04;;;;;;;5.57;3.95;;;;;;;8.88;60.77;99096.38;1086801;54;20069;-79
2023/01/08 03:41:12;;;;;;;5.40;3.97;;;;;;;9.05;60.49;99099.16;1087015;54;20011;-79
2023/01/08 03:42:15;;;;;;;5.70;3.60;;;;;;;9.05;60.38;99100.00;1089345;31;20595;-79
2023/01/08 03:43:20;;;;;;;5.50;3.28;;;;;;;9.06;60.36;99108.84;1087000;54;20046;-79
2023/01/08 03:44:21;;;;;;;5.53;3.80;;;;;;;9.14;60.33;99108.03;1086961;54;20042;-80
2023/01/08 03:45:28;;;;;;;5.25;3.25;;;;;;;9.12;60.43;99104.69;1086920;54;20042;-79
2023/01/08 03:58:56;;;;;;;6.13;4.15;;;;;;;9.02;60.58;99083.47;1087382;54;20045;-79
2023/01/08 04:00:12;;;;;;;6.43;4.05;;;;;;;8.94;60.59;99080.78;1086966;54;20065;-79
2023/01/08 04:01:16;;;;;;;5.72;3.70;;;;;;;8.92;60.59;99082.75;1087394;54;20034;-79
2023/01/08 04:02:18;;;;;;;6.20;3.45;;;;;;;8.99;60.69;99087.31;1087509;54;20050;-79
2023/01/08 04:03:23;;;;;;;6.55;4.20;;;;;;;8.90;60.79;99086.41;1087491;54;20014;-81
2023/01/08 04:04:24;;;;;;;4.93;3.25;;;;;;;8.96;60.45;99084.13;1087539;54;20053;-79
2023/01/08 04:05:28;;;;;;;6.15;3.80;;;;;;;9.09;60.19;99078.34;1087738;39;20420;-80
2023/01/08 04:07:39;;;;;;;6.00;3.63;;;;;;;9.06;60.30;99076.84;1086708;54;20034;-79
2023/01/08 04:08:40;;;;;;;6.22;3.03;;;;;;;9.01;60.56;99089.81;1087573;54;20069;-79
2023/01/08 04:09:44;;;;;;;6.22;3.65;;;;;;;8.86;60.74;99084.22;1087635;54;20085;-79
2023/01/08 04:10:46;;;;;;;6.13;4.05;;;;;;;8.86;60.74;99073.56;1087711;54;20034;-79
2023/01/08 04:11:50;;;;;;;5.40;3.58;;;;;;;8.94;60.75;99073.59;1087802;54;20042;-79
2023/01/08 04:12:54;;;;;;;5.20;3.28;;;;;;;8.98;60.45;99066.13;1087942;54;20061;-79
2023/01/08 04:13:58;;;;;;;4.97;3.20;;;;;;;9.14;60.22;99065.38;1087931;54;20065;-79
2023/01/08 04:14:59;;;;;;;5.85;3.30;;;;;;;9.17;59.93;99060.53;1087886;54;20069;-79
2023/01/08 04:17:14;;;;;;;6.00;3.45;;;;;;;9.11;60.29;99066.53;1087253;39;21186;-79
2023/01/08 04:18:16;;;;;;;5.78;3.13;;;;;;;9.23;60.10;99071.59;1087933;54;20031;-79
2023/01/08 04:19:20;;;;;;;5.25;3.13;;;;;;;9.23;59.63;99064.41;1087927;54;20042;-79
2023/01/08 04:20:21;;;;;;;6.18;3.50;;;;;;;9.21;59.77;99072.56;1087861;54;20045;-80
2023/01/08 04:21:25;;;;;;;5.35;3.45;;;;;;;9.15;59.90;99067.03;1087840;54;20090;-79
2023/01/08 04:22:27;;;;;;;4.90;3.20;;;;;;;9.14;59.91;99071.56;1087825;54;20069;-79
2023/01/08 04:23:31;;;;;;;5.30;3.35;;;;;;;9.18;60.06;99070.22;1087816;54;20093;-81
2023/01/08 04:24:32;;;;;;;6.18;3.30;;;;;;;9.04;60.20;99076.16;1087772;54;20039;-80
2023/01/08 04:25:38;;;;;;;6.90;3.70;;;;;;;9.00;60.28;99085.47;1087661;54;20058;-79
2023/01/08 04:26:40;;;;;;;5.57;3.40;;;;;;;8.91;60.48;99079.25;1087714;54;20042;-79
2023/01/08 04:27:45;;;;;;;5.40;3.60;;;;;;;9.10;60.12;99072.84;1087926;54;20678;-80
2023/01/08 04:28:49;;;;;;;7.88;3.55;;;;;;;9.03;60.16;99069.16;1087811;54;20512;-79
2023/01/08 04:29:53;;;;;;;6.53;3.10;;;;;;;9.15;60.11;99070.56;1087832;54;20042;-79
2023/01/08 04:30:54;;;;;;;5.22;3.20;;;;;;;9.18;60.07;99067.56;1087611;54;20039;-80
2023/01/08 04:31:58;;;;;;;6.10;3.25;;;;;;;9.29;59.43;99068.28;1088606;39;20485;-79
2023/01/08 04:33:00;;;;;;;6.00;3.00;;;;;;;9.31;59.60;99072.44;1087455;54;20030;-79
2023/01/08 04:34:04;;;;;;;5.90;3.60;;;;;;;9.29;59.66;99074.47;1087668;54;20294;-79
2023/01/08 04:35:06;;;;;;;5.20;3.05;;;;;;;9.33;59.33;99082.97;1087471;54;20061;-79
2023/01/08 04:37:19;;;;;;;5.22;3.40;;;;;;;9.17;59.72;99068.53;1093428;31;20756;-79
2023/01/08 04:38:22;;;;;;;5.15;2.92;;;;;;;9.24;59.69;99065.25;1087842;54;20050;-81
2023/01/08 04:39:26;;;;;;;5.40;2.85;;;;;;;9.32;59.92;99070.63;1087884;54;20046;-79
2023/01/08 04:40:28;;;;;;;5.50;3.25;;;;;;;9.35;59.70;99059.66;1088901;39;20581;-80
2023/01/08 04:41:33;;;;;;;5.88;3.80;;;;;;;9.35;59.76;99059.66;1087890;54;20030;-80
2023/01/08 04:42:34;;;;;;;5.63;3.00;;;;;;;9.42;59.53;99058.00;1087835;54;20030;-79
2023/01/08 04:43:38;;;;;;;4.90;3.00;;;;;;;9.46;59.57;99063.84;1087752;54;20106;-79
2023/01/08 04:44:42;;;;;;;5.25;3.20;;;;;;;9.21;60.17;99066.41;1087142;54;20038;-79
2023/01/08 04:45:46;;;;;;;5.63;3.38;;;;;;;9.16;60.52;99068.72;1087253;54;20042;-79
2023/01/08 04:46:48;;;;;;;6.25;3.80;;;;;;;9.09;60.97;99073.84;1087087;54;20030;-79
2023/01/08 04:47:57;;;;;;;6.30;3.83;;;;;;;8.98;61.79;99076.78;1087103;54;20587;-79
2023/01/08 04:48:59;;;;;;;6.38;4.05;;;;;;;8.88;62.27;99080.38;1087032;54;20038;-79
2023/01/08 04:50:03;;;;;;;6.15;3.88;;;;;;;8.86;62.45;99082.41;1086791;54;20030;-79
2023/01/08 04:51:05;;;;;;;7.20;3.67;;;;;;;8.80;62.41;99080.34;1087924;39;20109;-79
2023/01/08 04:52:09;;;;;;;9.07;4.25;;;;;;;8.81;62.43;99076.69;1086810;54;20049;-80
2023/01/08 04:53:10;;;;;;;5.63;3.90;;;;;;;8.78;62.52;99077.03;1086752;46;20050;-78
2023/01/08 04:54:14;;;;;;;5.38;3.60;;;;;;;8.75;62.76;99072.00;1087306;54;20054;-79
2023/01/08 04:55:17;;;;;;;5.82;3.90;;;;;;;8.76;62.93;99084.34;1088051;54;20053;-79
2023/01/08 05:02:12;;;;;;;7.28;4.28;;;;;;;8.45;65.23;99098.06;1085852;54;20073;-79
2023/01/08 05:03:13;;;;;;;6.70;3.97;;;;;;;8.39;65.54;99101.34;1086708;54;20054;-79
2023/01/08 05:04:17;;;;;;;6.28;4.50;;;;;;;8.34;65.81;99091.16;1086898;54;20153;-78
2023/01/08 05:05:19;;;;;;;7.93;4.40;;;;;;;8.45;65.63;99099.91;1086682;54;20451;-78
2023/01/08 05:06:23;;;;;;;6.70;3.85;;;;;;;8.55;65.51;99095.31;1086824;54;20042;-78
2023/01/08 05:07:27;;;;;;;6.00;3.83;;;;;;;8.56;65.32;99089.00;1088193;39;20449;-79
2023/01/08 05:08:29;;;;;;;7.38;4.15;;;;;;;8.50;65.73;99084.31;1087018;54;20050;-79
2023/01/08 05:09:33;;;;;;;6.45;4.20;;;;;;;8.54;65.61;99075.03;1086981;54;20057;-79
2023/01/08 05:10:34;;;;;;;6.80;4.38;;;;;;;8.36;66.40;99089.16;1086780;54;20041;-79
2023/01/08 05:11:38;;;;;;;7.30;4.88;;;;;;;8.27;66.91;99085.59;1086699;54;20034;-82
2023/01/08 05:12:40;;;;;;;6.78;4.53;;;;;;;8.22;67.11;99084.38;1087814;54;20094;-80
2023/01/08 05:13:44;;;;;;;6.45;4.50;;;;;;;8.28;66.83;99081.09;1087999;54;20065;-81
2023/01/08 05:14:46;;;;;;;6.40;4.57;;;;;;;8.23;67.30;99072.75;1088007;54;20027;-80
2023/01/08 05:15:50;;;;;;;9.48;4.60;;;;;;;8.24;67.22;99080.56;1087767;54;20348;-82
2023/01/08 05:16:51;;;;;;;7.00;4.88;;;;;;;8.21;67.74;99075.56;1087875;54;20069;-82
2023/01/08 05:18:03;;;;;;;6.63;4.22;;;;;;;8.19;67.80;99077.53;1087651;54;20014;-81
2023/01/08 05:19:05;;;;;;;7.07;4.82;;;;;;;8.14;68.00;99074.50;1086812;54;20038;-78
2023/01/08 05:20:11;;;;;;;6.88;4.75;;;;;;;8.18;67.95;99073.22;1086861;54;20041;-77
2023/01/08 05:21:13;;;;;;;7.07;4.65;;;;;;;8.14;68.07;99073.66;1087052;54;20050;-78
2023/01/08 05:22:17;;;;;;;7.13;4.65;;;;;;;8.13;68.18;99083.47;1087544;54;20365;-79
2023/01/08 05:23:18;;;;;;;6.65;4.57;;;;;;;8.22;67.91;99082.53;1086641;54;20038;-79
2023/01/08 05:24:22;;;;;;;6.60;4.43;;;;;;;8.15;67.96;99080.66;1087182;39;20421;-78
2023/01/08 05:25:24;;;;;;;7.75;4.82;;;;;;;8.12;68.21;99081.81;1086822;54;20089;-80
2023/01/08 05:26:28;;;;;;;7.57;5.00;;;;;;;8.15;68.02;99086.81;1088679;39;20503;-79
2023/01/08 05:27:30;;;;;;;6.78;4.28;;;;;;;8.11;68.32;99090.78;1087170;54;20071;-78
2023/01/08 05:28:35;;;;;;;7.35;4.40;;;;;;;8.07;68.37;99086.75;1086908;54;20679;-79
2023/01/08 05:29:39;;;;;;;7.40;4.55;;;;;;;8.08;68.54;99091.91;1087094;31;20505;-78
2023/01/08 05:30:40;;;;;;;7.45;5.07;;;;;;;8.10;68.30;99094.44;1086582;54;20607;-78
2023/01/08 05:31:45;;;;;;;9.02;5.40;;;;;;;8.17;68.35;99090.16;1087366;54;20030;-79
2023/01/08 05:32:46;;;;;;;7.25;4.50;;;;;;;8.12;68.44;99084.47;1086896;54;20057;-79
2023/01/08 05:33:53;;;;;;;7.95;4.93;;;;;;;8.07;68.89;99092.91;1086538;54;20031;-78
2023/01/08 05:34:54;;;;;;;7.53;4.72;;;;;;;8.08;69.01;99096.41;1087132;39;20460;-78
2023/01/08 05:35:59;;;;;;;7.00;4.78;;;;;;;8.08;68.98;99093.75;1086702;54;20057;-79
2023/01/08 05:37:00;;;;;;;7.05;4.43;;;;;;;8.19;68.52;99096.19;1086990;54;20037;-79
2023/01/08 05:38:04;;;;;;;6.53;4.30;;;;;;;8.20;68.37;99091.69;1086922;54;20065;-78
2023/01/08 05:39:08;;;;;;;8.07;4.72;;;;;;;8.10;68.77;99097.09;1087438;46;20061;-79
2023/01/08 05:40:11;;;;;;;7.35;4.75;;;;;;;8.12;68.56;99095.13;1087107;54;20030;-79
2023/01/08 05:41:15;;;;;;;8.43;4.75;;;;;;;8.11;68.77;99096.94;1087165;54;20623;-78
2023/01/08 05:42:17;;;;;;;6.97;4.32;;;;;;;8.10;68.93;99091.78;1087756;39;20820;-80
2023/01/08 05:43:21;;;;;;;7.75;4.70;;;;;;;8.18;68.81;99096.31;1087090;54;20145;-79
2023/01/08 05:44:22;;;;;;;5.95;3.92;;;;;;;8.16;68.73;99093.81;1086900;54;20046;-78
2023/01/08 05:45:26;;;;;;;7.10;4.65;;;;;;;8.12;69.11;99090.63;1087080;54;20606;-79
2023/01/08 05:46:28;;;;;;;8.70;4.80;;;;;;;8.10;69.32;99097.91;1087598;54;20038;-80
2023/01/08 05:47:33;;;;;;;6.50;4.38;;;;;;;8.13;69.31;99091.44;1087712;54;20035;-80
2023/01/08 05:48:36;;;;;;;6.53;4.18;;;;;;;8.15;69.08;99097.47;1087917;54;20061;-79
2023/01/08 05:49:42;;;;;;;7.53;4.65;;;;;;;8.16;69.29;99096.47;1086954;54;20045;-79
2023/01/08 05:50:44;;;;;;;6.20;4.05;;;;;;;8.22;69.18;99093.19;1087433;54;20077;-80
2023/01/08 05:51:48;;;;;;;7.30;4.40;;;;;;;8.11;69.76;99090.78;1087840;54;20038;-79
2023/01/08 05:52:49;;;;;;;6.22;4.20;;;;;;;8.23;69.58;99092.22;1087757;54;20050;-78
2023/01/08 05:53:53;;;;;;;6.70;4.30;;;;;;;8.21;69.50;99090.69;1087347;54;20026;-79
2023/01/08 05:54:55;;;;;;;6.13;4.30;;;;;;;8.21;69.46;99091.56;1087029;54;20129;-79
2023/01/08 05:58:12;;;;;;;7.35;4.90;;;;;;;8.23;69.67;99089.53;1085944;54;20766;-79
2023/01/08 05:59:14;;;;;;;7.93;4.63;;;;;;;8.18;69.74;99096.31;1087531;54;20098;-79
2023/01/08 06:00:18;;;;;;;6.53;4.40;;;;;;;8.21;69.89;99094.22;1087925;54;20031;-78
2023/01/08 06:01:20;;;;;;;6.60;4.28;;;;;;;8.19;69.54;99093.53;1087996;46;20050;-80
2023/01/08 06:02:24;;;;;;;6.72;4.15;;;;;;;8.30;69.47;99094.28;1088014;54;20820;-79
2023/01/08 06:03:26;;;;;;;8.80;4.30;;;;;;;8.26;69.50;99099.91;1087308;54;20059;-79
2023/01/08 06:04:30;;;;;;;6.70;4.28;;;;;;;8.36;69.45;99098.97;1086812;54;20090;-80
2023/01/08 06:05:34;;;;;;;6.43;4.10;;;;;;;8.30;69.49;99103.09;1087199;46;20073;-79
2023/01/08 06:10:11;;;;;;;7.30;4.43;;;;;;;8.41;69.34;99097.53;1085628;54;20856;-79
2023/01/08 06:11:13;;;;;;;7.00;4.10;;;;;;;8.40;69.49;99095.03;1087060;54;20061;-81
2023/01/08 06:12:17;;;;;;;6.85;4.60;;;;;;;8.44;69.36;99101.72;1086849;54;20035;-80
2023/01/08 06:13:19;;;;;;;6.85;3.40;;;;;;;8.37;69.28;99085.50;1087534;31;20667;-79
2023/01/08 06:14:23;;;;;;;7.55;4.30;;;;;;;8.41;69.03;99089.53;1086826;54;20038;-80
2023/01/08 06:15:25;;;;;;;5.65;3.90;;;;;;;8.43;69.24;99086.72;1086876;54;20050;-79
2023/01/08 06:16:29;;;;;;;7.80;4.10;;;;;;;8.35;69.35;99082.19;1086678;54;20030;-79
2023/01/08 06:17:30;;;;;;;6.15;3.50;;;;;;;8.31;69.39;99093.28;1086724;54;20077;-79
2023/01/08 06:18:34;;;;;;;7.15;4.07;;;;;;;8.45;69.27;99087.41;1087234;46;20110;-80
2023/01/08 06:19:38;;;;;;;7.90;3.95;;;;;;;8.39;69.33;99088.03;1087640;54;20095;-79
2023/01/08 06:20:44;;;;;;;7.10;4.07;;;;;;;8.46;69.10;99081.09;1087953;54;20030;-79
2023/01/08 06:21:46;;;;;;;7.15;4.38;;;;;;;8.49;69.15;99086.16;1087866;54;20038;-79
2023/01/08 06:23:03;;;;;;;6.28;3.88;;;;;;;8.42;69.19;99090.38;1087867;54;20038;-79
2023/01/08 06:24:52;;;;;;;7.18;4.22;;;;;;;8.44;69.27;99083.06;1087799;54;20086;-80
2023/01/08 06:44:11;;;;;;;4.90;2.60;;;;;;;8.80;68.80;99063.53;1087190;54;20069;-80
2023/01/08 06:47:32;;;;;;;5.13;3.00;;;;;;;9.00;68.46;99072.97;1087227;54;20034;-79
2023/01/08 06:49:13;;;;;;;5.25;2.40;;;;;;;9.10;67.98;99064.84;1087716;54;20035;-78
2023/01/08 06:50:55;;;;;;;5.60;2.38;;;;;;;9.05;68.27;99073.34;1087654;54;20059;-79
2023/01/08 06:52:17;;;;;;;4.68;2.63;;;;;;;9.22;67.80;99068.06;1087416;46;20275;-79
2023/01/08 06:55:52;;;;;;;3.78;1.98;;;;;;;9.33;67.50;99072.31;1087339;54;20591;-78
2023/01/08 07:01:23;;;;;;;4.88;1.50;;;;;;;9.44;67.64;99077.34;1087280;54;20035;-80
2023/01/08 07:03:19;;;;;;;3.60;1.60;;;;;;;9.44;67.37;99080.03;1087454;54;20644;-79
2023/01/08 07:06:17;;;;;;;5.68;1.60;;;;;;;9.51;67.56;99083.69;1087278;54;20035;-80
2023/01/08 07:07:37;;;;;;;3.22;1.33;;;;;;;9.57;67.21;99070.69;1087480;54;20069;-79
2023/01/08 07:08:54;;;;;;;3.20;1.45;;;;;;;9.51;67.68;99081.03;1089815;39;20710;-79
2023/01/08 07:10:42;;;;;;;4.35;1.67;;;;;;;9.60;67.52;99081.88;1086766;54;20061;-78
2023/01/08 07:11:57;;;;;;;4.05;1.58;;;;;;;9.64;67.37;99071.72;1086442;54;20035;-79
2023/01/08 07:14:39;;;;;;;3.13;1.30;;;;;;;9.87;66.72;99071.94;1087813;39;20827;-79
2023/01/08 07:16:04;;;;;;;3.20;1.33;;;;;;;9.81;67.07;99069.94;1086555;54;20102;-79
2023/01/08 07:17:40;;;;;;;3.83;1.40;;;;;;;9.86;67.04;99075.63;1086868;54;20030;-79
2023/01/08 07:19:09;;;;;;;3.10;1.10;;;;;;;9.95;66.69;99066.63;1086850;54;20052;-79
2023/01/08 07:20:26;;;;;;;2.97;1.25;;;;;;;10.02;66.44;99063.28;1087017;54;20063;-79
2023/01/08 07:22:22;;;;;;;3.50;1.42;;;;;;;10.04;66.45;99063.97;1086773;54;20045;-78
2023/01/08 07:23:49;;;;;;;2.60;1.08;;;;;;;10.05;66.44;99057.63;1085535;54;20069;-79
2023/01/08 07:32:46;;;;;;;2.85;1.10;;;;;;;9.92;67.37;99074.13;1086692;54;20042;-80
2023/01/08 07:34:33;;;;;;;3.78;1.45;;;;;;;9.86;67.29;99074.78;1086648;54;20039;-80
2023/01/08 07:42:44;;;;;;;3.35;1.65;;;;;;;9.91;67.95;99064.47;1085224;54;20038;-78
2023/01/08 07:43:47;;;;;;;3.28;1.38;;;;;;;9.99;68.06;99067.97;1086343;54;20115;-79
2023/01/08 07:44:51;;;;;;;2.95;1.33;;;;;;;9.98;68.09;99063.63;1088950;39;20288;-79
2023/01/08 07:45:58;;;;;;;3.28;1.10;;;;;;;10.02;68.18;99063.28;1090878;31;20116;-78
2023/01/08 07:46:59;;;;;;;3.78;1.50;;;;;;;9.99;68.23;99064.47;1087631;54;20065;-79
2023/01/08 07:48:03;;;;;;;5.05;2.03;;;;;;;9.84;69.08;99067.75;1087725;54;20026;-79
2023/01/08 07:49:08;;;;;;;3.70;1.65;;;;;;;9.70;69.27;99067.56;1089732;39;20109;-79